Time;durP1;ratioP1;P1;durP2;ratioP2;P2;SDS_P1;SDS_P2;PMS_P1;PMS_P2;Temp;Humidity;BMP_temperature;BMP_pressure;BME280_temperature;BME280_humidity;BME280_pressure;Samples;Min_cycle;Max_cycle;Signal;HPM_P1;HPM_P2
2022/11/24 00:01:31;;;;;;;7.00;2.70;;;;;;;12.21;58.22;98019.44;7039262;28;20213;-88
2022/11/24 00:04:53;;;;;;;6.40;2.73;;;;;;;12.04;58.87;98053.59;7038428;28;20668;-88
2022/11/24 00:08:15;;;;;;;7.97;3.60;;;;;;;12.22;58.61;98043.50;7045668;28;20224;-88
2022/11/24 00:11:37;;;;;;;9.83;3.03;;;;;;;12.38;58.39;98037.41;7066745;28;20232;-88
2022/11/24 00:14:59;;;;;;;6.80;3.10;;;;;;;12.48;57.99;98048.47;7043817;28;20241;-88
2022/11/24 00:18:20;;;;;;;10.60;2.90;;;;;;;12.23;58.82;98053.25;7037928;28;20631;-88
2022/11/24 00:21:42;;;;;;;7.47;3.00;;;;;;;11.91;58.38;97980.84;7038211;28;20734;-88
2022/11/24 00:25:06;;;;;;;6.00;2.83;;;;;;;12.07;58.16;97967.50;7037979;28;20579;-88
2022/11/24 00:28:27;;;;;;;7.57;3.37;;;;;;;12.22;58.29;98059.72;7038258;28;20260;-88
2022/11/24 00:31:49;;;;;;;6.53;3.03;;;;;;;12.33;58.60;98061.59;7038442;28;20215;-87
2022/11/24 00:35:10;;;;;;;7.63;3.13;;;;;;;12.22;59.22;98051.59;7038112;28;20209;-88
2022/11/24 00:38:32;;;;;;;8.70;3.37;;;;;;;12.34;58.31;98057.84;7038115;28;20256;-87
2022/11/24 00:41:55;;;;;;;5.97;2.80;;;;;;;12.03;58.94;98047.38;7038348;28;20239;-87
2022/11/24 00:45:16;;;;;;;10.43;4.33;;;;;;;12.47;58.25;98079.28;7061533;28;20257;-88
2022/11/24 00:48:38;;;;;;;8.27;3.17;;;;;;;12.39;57.87;98046.34;7066074;28;20575;-87
2022/11/24 00:52:00;;;;;;;7.83;2.97;;;;;;;12.54;57.79;98062.91;7066009;28;20255;-88
2022/11/24 00:55:22;;;;;;;10.07;3.23;;;;;;;12.52;57.32;98055.03;7051917;28;20213;-88
2022/11/24 00:58:46;;;;;;;9.00;2.90;;;;;;;12.19;56.85;97991.81;7048608;28;20248;-86
2022/11/24 01:02:08;;;;;;;11.53;3.00;;;;;;;12.37;58.52;98080.88;7030899;28;20229;-88
2022/11/24 01:05:29;;;;;;;11.00;3.27;;;;;;;12.46;58.50;98104.63;7047577;28;20201;-89
2022/11/24 01:13:04;;;;;;;8.00;2.97;;;;;;;12.87;57.22;98106.41;7036603;28;20239;-87
2022/11/24 01:16:38;;;;;;;12.23;3.70;;;;;;;12.75;57.55;98089.38;7066013;28;20636;-87
2022/11/24 01:19:59;;;;;;;6.10;2.80;;;;;;;12.36;58.27;98090.91;7046046;28;20224;-86
2022/11/24 01:23:21;;;;;;;7.00;2.93;;;;;;;12.38;58.38;98099.59;7051410;28;20205;-88
2022/11/24 01:26:43;;;;;;;5.87;3.10;;;;;;;12.14;57.85;98056.53;7073092;28;20220;-86
2022/11/24 01:30:06;;;;;;;11.43;3.30;;;;;;;12.51;58.28;98131.78;7074006;28;20216;-86
2022/11/24 01:33:29;;;;;;;9.23;3.10;;;;;;;12.70;57.48;98106.28;7074409;28;20239;-87
2022/11/24 01:36:51;;;;;;;12.83;3.70;;;;;;;12.66;56.92;98107.00;7073402;28;20292;-86
2022/11/24 01:40:16;;;;;;;6.07;2.53;;;;;;;12.68;57.09;98131.94;7074563;28;20235;-89
2022/11/24 01:43:38;;;;;;;10.50;3.83;;;;;;;12.93;56.15;98129.81;7064714;28;20201;-87
2022/11/24 01:47:00;;;;;;;5.77;2.77;;;;;;;12.81;56.28;98115.47;7043794;28;20229;-87
2022/11/24 01:50:24;;;;;;;13.43;3.30;;;;;;;12.25;57.42;98096.25;7043741;28;20218;-87
2022/11/24 01:53:49;;;;;;;4.67;2.43;;;;;;;12.65;56.66;98129.69;7044993;28;20205;-86
2022/11/24 01:57:15;;;;;;;10.60;2.60;;;;;;;12.44;56.94;98139.19;7043824;28;20255;-86
2022/11/24 02:00:38;;;;;;;8.90;3.00;;;;;;;12.21;56.60;98059.97;7043404;28;20752;-86
2022/11/24 02:04:01;;;;;;;8.83;2.90;;;;;;;12.56;57.36;98148.16;7043222;28;20231;-89
2022/11/24 02:07:24;;;;;;;8.87;2.73;;;;;;;12.28;58.14;98129.06;7045444;28;20251;-86
2022/11/24 02:10:46;;;;;;;6.83;3.57;;;;;;;12.33;57.69;98126.47;7073388;28;20208;-88
2022/11/24 02:14:11;;;;;;;10.90;4.40;;;;;;;12.44;57.92;98141.06;7074360;28;20211;-88
2022/11/24 02:17:41;;;;;;;9.27;3.23;;;;;;;12.32;57.13;98088.88;7073196;28;20356;-87
2022/11/24 02:21:07;;;;;;;9.33;3.40;;;;;;;12.78;57.19;98154.63;7073706;28;20231;-87
2022/11/24 02:24:37;;;;;;;7.70;2.67;;;;;;;11.99;58.67;98132.63;7073526;28;20264;-89
2022/11/24 02:28:30;;;;;;;8.57;2.77;;;;;;;12.04;59.38;98158.97;7071910;28;20242;-87
2022/11/24 02:31:59;;;;;;;7.37;3.30;;;;;;;11.94;59.55;98142.47;7066235;28;20230;-87
2022/11/24 02:35:28;;;;;;;8.13;2.60;;;;;;;12.04;57.97;98092.22;7074316;28;20199;-89
2022/11/24 02:38:50;;;;;;;7.80;2.87;;;;;;;11.93;59.21;98127.34;7064087;28;20224;-87
2022/11/24 02:42:16;;;;;;;4.57;2.83;;;;;;;12.37;58.57;98170.94;7046031;28;20265;-87
2022/11/24 02:45:39;;;;;;;14.30;3.27;;;;;;;11.83;59.92;98143.25;7045158;28;20568;-87
2022/11/24 02:49:01;;;;;;;7.70;3.80;;;;;;;12.58;58.01;98166.84;7044963;28;20197;-86
2022/11/24 02:52:28;;;;;;;6.63;4.00;;;;;;;12.25;58.13;98128.69;7045247;28;20697;-87
2022/11/24 02:55:50;;;;;;;5.67;2.30;;;;;;;12.14;59.19;98165.44;7069331;28;20208;-85
2022/11/24 02:59:11;;;;;;;3.93;2.60;;;;;;;12.45;58.69;98161.66;7068676;28;20224;-85
2022/11/24 03:02:34;;;;;;;6.27;2.37;;;;;;;12.44;58.41;98157.28;7068837;28;20308;-85
2022/11/24 03:05:56;;;;;;;5.43;2.30;;;;;;;11.31;59.19;98028.69;7067715;28;20204;-85
2022/11/24 03:09:18;;;;;;;5.47;2.70;;;;;;;11.81;59.44;98148.88;7056327;28;20212;-85
2022/11/24 03:12:40;;;;;;;4.60;2.80;;;;;;;12.01;59.35;98191.84;7042075;28;20213;-85
2022/11/24 03:16:02;;;;;;;7.37;2.60;;;;;;;11.88;59.07;98163.16;7067033;28;20224;-85
2022/11/24 03:19:55;;;;;;;6.37;2.43;;;;;;;12.08;59.02;98174.47;7067672;28;20663;-84
2022/11/24 03:23:17;;;;;;;4.93;2.63;;;;;;;12.02;59.22;98197.00;7069117;28;20244;-85
2022/11/24 03:26:40;;;;;;;5.07;2.20;;;;;;;11.91;59.78;98203.19;7068116;28;20228;-85
2022/11/24 03:30:02;;;;;;;6.50;2.10;;;;;;;11.89;60.00;98204.47;7069764;28;20212;-85
2022/11/24 03:33:24;;;;;;;6.17;2.40;;;;;;;12.13;58.80;98196.25;7060093;28;20212;-87
2022/11/24 03:36:46;;;;;;;6.20;2.43;;;;;;;12.30;57.99;98209.91;7059264;28;20368;-86
2022/11/24 03:40:09;;;;;;;7.30;2.77;;;;;;;12.22;57.83;98194.03;7062235;28;20844;-85
2022/11/24 03:43:31;;;;;;;4.53;2.00;;;;;;;12.28;58.31;98207.44;7059555;28;20717;-86
2022/11/24 03:46:53;;;;;;;5.20;2.60;;;;;;;12.33;57.87;98177.84;7057790;28;20223;-86
2022/11/24 03:50:14;;;;;;;7.10;2.37;;;;;;;11.97;58.88;98215.78;7058882;28;20212;-86
2022/11/24 03:53:37;;;;;;;5.00;2.10;;;;;;;12.22;58.85;98229.16;7059473;28;20272;-86
2022/11/24 03:56:59;;;;;;;4.27;2.40;;;;;;;11.51;58.56;98098.59;7059148;28;20270;-86
2022/11/24 04:00:20;;;;;;;6.63;2.77;;;;;;;12.51;57.60;98236.44;7059319;28;20272;-86
2022/11/24 04:03:42;;;;;;;7.40;2.40;;;;;;;12.22;58.20;98243.50;7059115;28;20676;-86
2022/11/24 04:07:03;;;;;;;8.03;2.70;;;;;;;12.11;57.90;98203.72;7057915;28;20353;-86
2022/11/24 04:10:26;;;;;;;6.30;2.10;;;;;;;11.91;58.23;98191.53;7037054;28;20292;-86
2022/11/24 04:13:47;;;;;;;4.70;2.20;;;;;;;11.97;59.00;98221.19;7030423;28;20205;-86
2022/11/24 04:17:08;;;;;;;5.30;2.23;;;;;;;11.81;59.29;98223.69;7030034;28;20620;-85
2022/11/24 04:20:30;;;;;;;2.20;1.93;;;;;;;11.97;58.28;98190.63;7030515;28;20753;-86
2022/11/24 04:23:51;;;;;;;6.23;2.73;;;;;;;12.48;58.10;98247.69;7031101;28;20669;-86
2022/11/24 04:27:14;;;;;;;6.00;2.60;;;;;;;12.01;58.77;98232.34;7031842;28;20319;-86
2022/11/24 04:30:37;;;;;;;6.03;2.50;;;;;;;12.01;59.27;98257.50;7035508;28;20216;-86
2022/11/24 04:33:58;;;;;;;4.60;2.60;;;;;;;12.06;59.00;98263.06;7035346;28;20204;-86
2022/11/24 04:37:20;;;;;;;4.70;2.63;;;;;;;12.17;58.56;98262.25;7035023;28;20308;-86
2022/11/24 04:40:42;;;;;;;5.97;2.80;;;;;;;12.11;58.68;98260.47;7038337;28;20228;-86
2022/11/24 04:44:05;;;;;;;8.27;2.80;;;;;;;12.10;58.82;98272.34;7054993;28;20686;-85
2022/11/24 04:47:27;;;;;;;6.97;3.13;;;;;;;12.28;58.37;98268.78;7072563;28;20227;-86
2022/11/24 04:50:49;;;;;;;6.67;2.97;;;;;;;12.49;57.19;98276.38;7073320;28;20257;-85
2022/11/24 04:54:11;;;;;;;7.30;2.53;;;;;;;12.06;57.55;98249.56;7062699;28;20216;-86
2022/11/24 04:57:33;;;;;;;2.90;2.60;;;;;;;12.21;57.51;98235.63;7034131;28;20263;-87
2022/11/24 05:00:56;;;;;;;8.20;2.40;;;;;;;12.37;56.75;98246.63;7034927;28;20282;-86
2022/11/24 05:04:19;;;;;;;4.67;2.57;;;;;;;12.41;57.28;98271.31;7047333;28;20238;-87
2022/11/24 05:07:40;;;;;;;7.03;2.73;;;;;;;12.19;58.18;98271.00;7062150;28;20233;-87
2022/11/24 05:11:03;;;;;;;3.37;3.03;;;;;;;12.43;57.64;98282.72;7062714;28;20233;-86
2022/11/24 05:14:25;;;;;;;7.63;2.90;;;;;;;12.63;56.66;98275.16;7061705;28;20291;-86
2022/11/24 05:17:48;;;;;;;7.90;3.60;;;;;;;12.26;56.25;98225.78;7061384;28;20311;-87
2022/11/24 05:21:09;;;;;;;8.93;3.20;;;;;;;12.65;55.76;98273.88;7060326;28;20361;-87
2022/11/24 05:24:31;;;;;;;7.83;2.67;;;;;;;12.70;55.77;98282.09;7062714;28;20279;-87
2022/11/24 05:27:52;;;;;;;4.87;2.20;;;;;;;12.60;55.93;98289.13;7061607;28;20263;-86
2022/11/24 05:31:14;;;;;;;4.37;2.50;;;;;;;12.53;55.91;98274.88;7062663;28;20259;-88
2022/11/24 05:34:37;;;;;;;5.13;2.30;;;;;;;12.51;55.18;98260.78;7062580;28;20299;-86
2022/11/24 05:37:58;;;;;;;6.90;2.60;;;;;;;12.96;54.32;98291.72;7039977;28;20225;-86
2022/11/24 05:41:20;;;;;;;4.67;2.33;;;;;;;12.64;55.02;98298.44;7034126;28;20798;-85
2022/11/24 05:44:41;;;;;;;7.80;2.37;;;;;;;12.23;55.99;98274.06;7059436;28;20306;-86
2022/11/24 05:48:07;;;;;;;5.23;2.83;;;;;;;12.46;55.43;98291.19;7060777;28;20231;-86
2022/11/24 05:51:32;;;;;;;7.77;2.50;;;;;;;12.33;55.03;98252.72;7062761;28;20200;-86
2022/11/24 05:54:53;;;;;;;9.27;2.50;;;;;;;12.45;55.44;98299.53;7062257;28;20204;-86
2022/11/24 05:58:15;;;;;;;6.60;2.30;;;;;;;12.35;56.11;98301.97;7062158;28;20265;-85
2022/11/24 06:01:36;;;;;;;9.23;3.47;;;;;;;12.25;55.86;98280.06;7062414;28;20251;-86
2022/11/24 06:04:58;;;;;;;6.73;2.70;;;;;;;12.01;56.79;98297.19;7061985;28;20243;-86
2022/11/24 06:08:21;;;;;;;7.43;2.87;;;;;;;12.21;56.04;98285.09;7062510;28;20291;-86
2022/11/24 06:11:42;;;;;;;7.47;2.83;;;;;;;12.16;56.38;98292.25;7062398;28;20197;-87
2022/11/24 06:15:05;;;;;;;10.63;3.17;;;;;;;12.45;55.68;98299.53;7064815;28;20211;-87
2022/11/24 06:18:26;;;;;;;11.77;3.37;;;;;;;12.49;54.97;98277.22;7059773;28;20247;-87
2022/11/24 06:22:44;;;;;;;10.70;2.80;;;;;;;12.29;54.90;98243.41;7053507;28;20220;-87
2022/11/24 06:34:49;;;;;;;7.47;2.80;;;;;;;11.89;57.38;98317.91;7027741;28;20234;-87
2022/11/24 06:46:19;;;;;;;5.27;2.63;;;;;;;12.17;56.32;98324.41;7115370;27;20540;-73
2022/11/24 06:49:42;;;;;;;5.90;2.80;;;;;;;12.05;56.80;98330.84;7115986;27;20199;-71
2022/11/24 06:53:04;;;;;;;9.23;2.53;;;;;;;12.19;56.52;98329.59;7115609;27;20295;-72
2022/11/24 06:56:25;;;;;;;10.70;3.00;;;;;;;12.17;55.60;98305.50;7101182;27;20235;-72
2022/11/24 06:59:47;;;;;;;6.60;2.47;;;;;;;12.49;55.29;98320.47;7057909;28;20200;-73
2022/11/24 07:03:14;;;;;;;5.40;2.97;;;;;;;12.43;55.12;98353.00;7059225;28;20208;-72
2022/11/24 07:06:35;;;;;;;6.90;2.53;;;;;;;12.47;55.37;98346.94;7066429;28;20207;-72
2022/11/24 07:09:57;;;;;;;7.47;3.20;;;;;;;12.26;55.40;98314.97;7085831;27;20219;-73
2022/11/24 07:13:19;;;;;;;10.50;3.03;;;;;;;12.30;55.47;98347.75;7086231;28;20587;-72
2022/11/24 07:16:41;;;;;;;10.37;2.80;;;;;;;12.50;55.28;98351.03;7085262;27;20226;-74
2022/11/24 07:20:07;;;;;;;5.67;2.83;;;;;;;12.50;55.03;98351.03;7085606;27;20577;-73
2022/11/24 07:23:28;;;;;;;6.67;3.10;;;;;;;12.39;55.51;98357.22;7086126;28;20242;-74
2022/11/24 07:26:50;;;;;;;8.17;4.73;;;;;;;12.93;54.97;98393.09;7086356;28;20204;-73
2022/11/24 07:30:13;;;;;;;8.23;2.87;;;;;;;12.68;55.40;98342.91;7085368;28;20223;-71
2022/11/24 07:33:34;;;;;;;7.37;2.87;;;;;;;12.54;56.69;98368.47;7084327;27;20212;-69
2022/11/24 07:36:58;;;;;;;6.40;3.53;;;;;;;12.02;56.18;98263.72;7085482;28;20229;-72
2022/11/24 07:40:19;;;;;;;9.67;3.87;;;;;;;12.97;55.70;98404.31;7086433;27;20357;-73
2022/11/24 07:43:41;;;;;;;6.80;3.90;;;;;;;12.85;55.76;98387.16;7084237;27;20224;-72
2022/11/24 07:47:04;;;;;;;10.73;3.30;;;;;;;12.97;55.95;98417.84;7086441;27;20207;-73
2022/11/24 07:50:26;;;;;;;13.97;4.50;;;;;;;12.69;56.93;98409.47;7062237;27;20212;-73
2022/11/24 07:53:49;;;;;;;11.30;3.07;;;;;;;11.34;58.64;98321.56;7084909;28;20700;-74
2022/11/24 07:57:11;;;;;;;11.63;2.87;;;;;;;12.15;58.88;98444.63;7070227;28;20208;-75
2022/11/24 08:00:32;;;;;;;6.90;3.30;;;;;;;12.32;58.65;98437.56;7068321;28;20215;-73
2022/11/24 08:03:54;;;;;;;9.20;3.30;;;;;;;12.26;58.55;98457.38;7063915;28;20213;-74
2022/11/24 08:07:15;;;;;;;7.30;2.87;;;;;;;11.88;60.35;98446.78;7053081;28;20257;-73
2022/11/24 08:10:38;;;;;;;10.70;3.20;;;;;;;12.30;59.53;98445.91;7068251;28;20652;-74
2022/11/24 08:14:00;;;;;;;7.03;2.83;;;;;;;12.18;59.74;98436.91;7067799;28;20543;-74
2022/11/24 08:17:22;;;;;;;9.93;2.93;;;;;;;12.65;59.36;98462.34;7067460;28;20290;-74
2022/11/24 08:20:45;;;;;;;14.10;3.50;;;;;;;12.95;58.51;98465.91;7066952;28;20231;-74
2022/11/24 08:24:08;;;;;;;6.97;2.70;;;;;;;12.12;57.22;98312.66;7065709;28;20228;-74
2022/11/24 08:27:31;;;;;;;9.87;3.20;;;;;;;12.84;56.54;98383.66;7066200;28;20204;-74
2022/11/24 08:30:53;;;;;;;10.10;3.33;;;;;;;12.51;56.93;98360.81;7066394;28;20305;-73
2022/11/24 08:34:14;;;;;;;7.43;2.60;;;;;;;12.93;57.97;98466.16;7066763;28;20204;-73
2022/11/24 08:37:36;;;;;;;7.63;3.23;;;;;;;13.15;57.68;98455.72;7065182;28;20208;-73
2022/11/24 08:41:01;;;;;;;9.67;3.33;;;;;;;13.14;57.68;98459.44;7066109;28;20224;-74
2022/11/24 08:44:24;;;;;;;8.23;3.37;;;;;;;13.24;57.63;98460.56;7065624;28;20223;-74
2022/11/24 08:47:46;;;;;;;6.53;3.30;;;;;;;13.07;57.48;98450.59;7065404;28;20224;-73
2022/11/24 08:51:09;;;;;;;7.37;3.00;;;;;;;11.94;59.00;98372.09;7066277;28;20246;-77
2022/11/24 08:54:31;;;;;;;8.37;3.80;;;;;;;12.67;58.82;98473.75;7066773;28;20196;-74
2022/11/24 08:57:56;;;;;;;9.87;3.90;;;;;;;12.91;57.86;98464.72;7066165;28;20254;-75
2022/11/24 09:01:19;;;;;;;7.97;2.70;;;;;;;12.53;58.38;98474.97;7066514;28;20676;-74
2022/11/24 09:04:40;;;;;;;9.03;3.20;;;;;;;12.86;57.27;98470.00;7066229;28;20229;-75
2022/11/24 09:08:02;;;;;;;4.77;1.90;;;;;;;12.54;56.84;98469.34;7046694;28;20201;-74
2022/11/24 09:11:25;;;;;;;5.33;2.57;;;;;;;12.52;57.11;98486.84;7044056;28;20211;-74
2022/11/24 09:14:47;;;;;;;6.10;2.20;;;;;;;12.40;59.33;98478.63;7058772;28;20200;-74
2022/11/24 09:18:10;;;;;;;4.00;2.20;;;;;;;11.92;57.34;98393.13;7037862;28;20205;-74
2022/11/24 09:21:36;;;;;;;5.00;2.27;;;;;;;12.62;57.61;98484.47;7062781;28;20203;-75
2022/11/24 09:24:58;;;;;;;5.73;2.17;;;;;;;12.14;56.79;98376.22;7065651;28;20268;-75
2022/11/24 09:28:19;;;;;;;5.47;2.13;;;;;;;12.44;55.92;98360.91;7064877;28;20212;-74
2022/11/24 09:31:41;;;;;;;4.97;2.67;;;;;;;13.09;55.73;98475.56;7055526;28;20204;-75
2022/11/24 09:35:06;;;;;;;5.40;1.87;;;;;;;12.70;56.68;98441.66;7036506;28;20201;-75
2022/11/24 09:38:28;;;;;;;4.47;2.60;;;;;;;13.78;54.67;98500.13;7066253;28;20233;-75
2022/11/24 09:42:07;;;;;;;3.87;1.83;;;;;;;13.47;55.72;98527.50;7065201;28;20537;-74
2022/11/24 09:45:46;;;;;;;5.50;2.03;;;;;;;13.35;55.08;98516.63;7059124;28;20225;-78
2022/11/24 09:49:13;;;;;;;3.60;2.17;;;;;;;13.40;55.23;98524.88;7039793;28;20200;-79
2022/11/24 09:52:41;;;;;;;2.60;2.30;;;;;;;13.63;54.47;98540.41;7056132;28;20192;-76
2022/11/24 09:56:11;;;;;;;3.40;2.00;;;;;;;13.19;56.19;98521.84;7065261;28;20196;-73
2022/11/24 09:59:33;;;;;;;6.03;2.47;;;;;;;13.63;54.58;98524.16;7064880;28;20204;-73
2022/11/24 10:02:54;;;;;;;5.73;2.63;;;;;;;13.91;53.77;98546.84;7062962;28;20212;-73
2022/11/24 10:06:22;;;;;;;4.40;2.30;;;;;;;13.80;54.39;98550.34;7061606;28;20231;-74
2022/11/24 10:09:53;;;;;;;4.30;2.10;;;;;;;13.32;55.62;98560.41;7064054;28;20204;-74
2022/11/24 10:13:25;;;;;;;4.40;3.20;;;;;;;13.08;56.36;98552.38;7063196;28;20200;-75
2022/11/24 10:16:53;;;;;;;4.70;2.73;;;;;;;13.09;56.36;98557.56;7063347;28;20286;-74
2022/11/24 10:20:20;;;;;;;2.53;2.20;;;;;;;12.95;56.94;98547.09;7060931;28;20224;-74
2022/11/24 10:23:54;;;;;;;2.87;2.17;;;;;;;13.20;56.65;98523.50;7063183;28;20217;-75
2022/11/24 10:27:19;;;;;;;2.20;2.00;;;;;;;13.38;55.70;98540.53;7063678;28;20196;-75
2022/11/24 10:30:40;;;;;;;2.77;1.90;;;;;;;13.24;54.06;98444.31;7053541;28;20211;-75
2022/11/24 10:34:09;;;;;;;5.27;2.00;;;;;;;13.81;53.78;98551.19;7061478;28;20198;-75
2022/11/24 10:37:35;;;;;;;2.50;2.00;;;;;;;14.44;52.43;98535.94;7056369;28;20211;-76
2022/11/24 10:40:59;;;;;;;1.93;1.63;;;;;;;13.83;53.93;98554.47;7057863;28;20197;-77
2022/11/24 10:44:22;;;;;;;2.30;1.60;;;;;;;13.60;53.42;98530.00;7056050;28;20221;-74
2022/11/24 10:47:45;;;;;;;1.57;1.23;;;;;;;13.82;53.51;98553.66;7047426;28;20200;-74
2022/11/24 10:51:37;;;;;;;2.30;1.77;;;;;;;13.15;52.61;98453.00;7036721;28;20251;-75
2022/11/24 10:54:59;;;;;;;2.20;1.70;;;;;;;13.68;53.43;98494.47;7063348;28;20259;-74
2022/11/24 10:58:25;;;;;;;1.63;1.53;;;;;;;14.15;52.16;98502.44;7061608;28;20265;-75
2022/11/24 11:01:48;;;;;;;3.10;1.90;;;;;;;14.06;51.60;98471.31;7048494;28;20224;-76
2022/11/24 11:05:36;;;;;;;4.30;1.60;;;;;;;15.02;51.58;98556.56;7063214;28;20229;-74
2022/11/24 11:09:18;;;;;;;1.40;1.30;;;;;;;14.90;51.67;98558.47;7062465;28;20597;-74
2022/11/24 11:12:40;;;;;;;1.67;1.53;;;;;;;15.33;50.50;98548.00;7056312;28;20211;-75
2022/11/24 11:16:14;;;;;;;3.03;1.73;;;;;;;15.20;49.82;98547.41;7049193;28;20204;-73
2022/11/24 11:19:38;;;;;;;1.77;1.67;;;;;;;14.58;50.82;98510.25;7080492;28;20234;-76
2022/11/24 11:23:01;;;;;;;1.60;1.50;;;;;;;14.49;51.60;98489.94;7070430;27;20200;-77
2022/11/24 11:26:35;;;;;;;2.10;1.80;;;;;;;14.81;52.09;98559.06;7061851;28;20237;-77
2022/11/24 11:30:17;;;;;;;2.17;1.70;;;;;;;14.37;53.84;98562.38;7038345;28;20204;-76
2022/11/24 11:33:39;;;;;;;12.47;2.00;;;;;;;13.99;53.11;98483.34;7063167;28;20571;-76
2022/11/24 11:37:03;;;;;;;2.70;2.00;;;;;;;14.44;53.83;98554.94;7066431;28;20200;-75
2022/11/24 11:40:28;;;;;;;2.00;1.60;;;;;;;14.61;54.33;98517.91;7058247;28;20574;-76
2022/11/24 11:43:52;;;;;;;2.80;1.90;;;;;;;15.66;50.66;98556.25;7062134;28;20691;-76
2022/11/24 11:47:18;;;;;;;5.23;1.80;;;;;;;15.43;51.19;98548.19;7058980;28;20223;-76
2022/11/24 11:50:42;;;;;;;2.97;1.80;;;;;;;14.82;51.84;98496.38;7060724;28;20222;-76
2022/11/24 11:54:09;;;;;;;2.20;1.80;;;;;;;15.20;51.34;98558.28;7065869;28;20204;-76
2022/11/24 11:57:39;;;;;;;2.40;1.70;;;;;;;15.12;51.04;98482.63;7065426;28;20227;-76
2022/11/24 12:01:06;;;;;;;2.50;1.73;;;;;;;14.96;51.34;98524.94;7066758;28;20208;-76
2022/11/24 12:04:40;;;;;;;2.90;1.60;;;;;;;15.58;50.99;98561.25;7066906;28;20666;-76
2022/11/24 12:08:21;;;;;;;4.77;2.27;;;;;;;15.93;49.84;98540.97;7066671;28;20207;-76
2022/11/24 12:11:49;;;;;;;4.00;1.60;;;;;;;16.67;47.93;98558.81;7066247;28;20221;-76
2022/11/24 12:15:15;;;;;;;3.93;1.60;;;;;;;16.81;47.73;98544.59;7057915;28;20217;-76
2022/11/24 12:18:43;;;;;;;4.30;1.80;;;;;;;16.32;47.21;98482.88;7049473;28;20654;-75
2022/11/24 12:22:09;;;;;;;3.50;2.10;;;;;;;16.90;46.55;98553.16;7066872;28;20546;-76
2022/11/24 12:25:34;;;;;;;3.50;1.80;;;;;;;16.62;46.42;98584.06;7044208;28;20709;-76
2022/11/24 12:29:05;;;;;;;5.60;1.90;;;;;;;16.25;47.08;98569.28;7061844;28;20232;-76
2022/11/24 12:32:45;;;;;;;3.37;2.00;;;;;;;16.16;46.63;98565.31;7066807;28;20216;-76
2022/11/24 12:36:15;;;;;;;3.87;2.00;;;;;;;15.87;47.58;98563.69;7066025;28;20258;-77
2022/11/24 12:39:44;;;;;;;4.73;2.10;;;;;;;14.97;49.30;98506.72;7061415;28;20207;-75
2022/11/24 12:43:11;;;;;;;5.57;3.93;;;;;;;14.96;48.66;98583.81;7054050;28;20220;-76
2022/11/24 12:46:42;;;;;;;10.57;4.00;;;;;;;14.92;49.49;98591.63;7065566;28;20360;-76
2022/11/24 12:50:10;;;;;;;5.33;3.30;;;;;;;15.55;47.56;98578.03;7066479;28;20205;-75
2022/11/24 12:53:33;;;;;;;6.30;2.37;;;;;;;15.19;48.08;98590.03;7066226;27;20204;-76
2022/11/24 12:56:58;;;;;;;3.97;2.07;;;;;;;15.02;48.22;98523.13;7053568;28;20231;-75
2022/11/24 13:00:21;;;;;;;2.43;1.83;;;;;;;14.87;49.26;98583.34;7037808;28;20211;-75
2022/11/24 13:03:53;;;;;;;4.57;2.27;;;;;;;14.84;50.73;98572.16;7037215;28;20206;-76
2022/11/24 13:07:18;;;;;;;7.13;3.17;;;;;;;15.26;48.83;98581.75;7061575;28;20260;-75
2022/11/24 13:10:40;;;;;;;3.93;2.07;;;;;;;15.65;48.03;98586.38;7065975;28;20640;-76
2022/11/24 13:14:05;;;;;;;4.70;1.80;;;;;;;15.14;49.20;98579.06;7064785;28;20205;-75
2022/11/24 13:17:30;;;;;;;6.77;2.40;;;;;;;15.42;47.88;98510.41;7065052;28;20212;-84
2022/11/24 13:20:53;;;;;;;6.67;3.37;;;;;;;15.43;47.62;98509.31;7064325;28;20216;-75
2022/11/24 13:24:25;;;;;;;4.20;2.50;;;;;;;15.86;47.29;98580.28;7064313;28;20681;-75
2022/11/24 13:27:51;;;;;;;7.17;2.50;;;;;;;16.57;46.03;98575.81;7064651;28;20215;-75
2022/11/24 13:31:22;;;;;;;6.87;2.43;;;;;;;16.65;45.35;98572.69;7064394;28;20219;-75
2022/11/24 13:35:04;;;;;;;2.83;1.93;;;;;;;17.03;44.21;98580.00;7064593;28;20230;-75
2022/11/24 13:38:53;;;;;;;6.67;2.43;;;;;;;16.53;43.66;98568.41;7063896;28;20221;-75
2022/11/24 13:42:15;;;;;;;5.83;2.57;;;;;;;16.50;43.54;98583.31;7064273;28;20700;-75
2022/11/24 13:45:49;;;;;;;6.87;2.37;;;;;;;16.19;44.04;98548.50;7063430;28;20247;-75
2022/11/24 13:49:14;;;;;;;6.10;2.80;;;;;;;16.33;44.38;98595.25;7064239;28;20205;-75
2022/11/24 13:52:47;;;;;;;7.57;2.53;;;;;;;15.86;44.56;98562.06;7063756;28;20217;-75
2022/11/24 13:56:32;;;;;;;8.37;2.50;;;;;;;15.61;44.63;98533.56;7063908;28;20663;-75
2022/11/24 14:00:00;;;;;;;5.97;2.20;;;;;;;15.86;44.15;98534.88;7064358;28;20209;-75
2022/11/24 14:03:26;;;;;;;5.10;2.20;;;;;;;15.92;43.76;98609.22;7064152;28;20216;-75
2022/11/24 14:06:55;;;;;;;6.70;2.50;;;;;;;16.08;43.93;98606.50;7062880;28;20240;-75
2022/11/24 14:10:20;;;;;;;4.67;2.63;;;;;;;15.29;44.87;98552.22;7063627;28;20204;-75
2022/11/24 14:13:44;;;;;;;7.07;2.87;;;;;;;15.94;45.08;98607.06;7062869;28;20202;-75
2022/11/24 14:17:08;;;;;;;5.70;2.43;;;;;;;15.90;44.89;98590.41;7063826;28;20201;-75
2022/11/24 14:20:30;;;;;;;5.50;2.30;;;;;;;15.76;44.54;98564.56;7062943;28;20217;-75
2022/11/24 14:23:54;;;;;;;4.80;2.00;;;;;;;15.91;44.77;98604.81;7063343;28;20211;-75
2022/11/24 14:27:17;;;;;;;4.53;2.13;;;;;;;16.02;44.27;98590.34;7063418;28;20220;-75
2022/11/24 14:30:40;;;;;;;7.13;2.77;;;;;;;15.91;43.72;98596.66;7063429;28;20224;-75
2022/11/24 14:34:15;;;;;;;9.77;2.53;;;;;;;15.64;43.71;98573.88;7043386;28;20208;-75
2022/11/24 14:37:37;;;;;;;5.27;2.43;;;;;;;15.13;44.01;98487.81;7062321;28;20201;-75
2022/11/24 14:41:14;;;;;;;5.30;2.40;;;;;;;16.02;42.08;98609.38;7063517;28;20217;-75
2022/11/24 14:44:45;;;;;;;4.03;2.33;;;;;;;15.66;42.83;98574.44;7062625;28;20213;-75
2022/11/24 14:48:15;;;;;;;5.73;2.80;;;;;;;15.03;42.74;98481.34;7033446;28;20209;-75
2022/11/24 14:51:37;;;;;;;8.00;2.57;;;;;;;15.30;43.70;98572.91;7036444;28;20205;-75
2022/11/24 14:55:00;;;;;;;7.43;2.50;;;;;;;15.37;43.63;98581.78;7062904;28;20216;-75
2022/11/24 14:58:31;;;;;;;7.13;2.80;;;;;;;15.91;43.02;98588.50;7059136;28;20647;-75
2022/11/24 15:01:53;;;;;;;4.17;2.30;;;;;;;15.63;43.86;98627.38;7059236;28;20221;-75
2022/11/24 15:05:17;;;;;;;5.33;2.53;;;;;;;15.97;43.09;98622.88;7054035;28;20220;-74
2022/11/24 15:08:45;;;;;;;4.67;2.10;;;;;;;15.45;43.18;98532.47;7053244;28;20200;-75
2022/11/24 15:12:09;;;;;;;6.83;2.83;;;;;;;16.17;43.08;98634.16;7054596;28;20211;-75
2022/11/24 15:15:33;;;;;;;7.20;2.97;;;;;;;16.07;43.73;98625.78;7061024;28;20223;-75
2022/11/24 15:18:57;;;;;;;9.00;3.23;;;;;;;15.97;44.37;98617.44;7068476;28;20211;-75
2022/11/24 15:22:42;;;;;;;6.40;3.43;;;;;;;16.16;43.73;98638.75;7068012;28;20225;-75
2022/11/24 15:26:22;;;;;;;7.30;2.70;;;;;;;15.92;43.97;98641.84;7068273;28;20682;-75
2022/11/24 15:29:44;;;;;;;7.33;3.10;;;;;;;15.56;44.80;98579.69;7064373;28;20215;-75
2022/11/24 15:33:13;;;;;;;13.77;5.67;;;;;;;15.59;46.31;98609.94;7039896;28;20212;-75
2022/11/24 15:36:35;;;;;;;9.10;3.47;;;;;;;15.43;46.42;98605.25;7042261;28;20206;-74
2022/11/24 15:39:58;;;;;;;9.00;3.17;;;;;;;15.41;46.61;98648.16;7067839;28;20212;-75
2022/11/24 15:43:29;;;;;;;5.73;2.67;;;;;;;15.32;46.08;98629.69;7067207;28;20225;-75
2022/11/24 15:46:51;;;;;;;4.43;2.37;;;;;;;14.82;45.25;98585.94;7064201;28;20308;-74
2022/11/24 15:50:13;;;;;;;4.50;2.27;;;;;;;14.32;45.28;98551.38;7055731;28;20213;-75
2022/11/24 15:53:36;;;;;;;6.50;2.33;;;;;;;14.64;45.49;98612.41;7054676;28;20206;-75
2022/11/24 15:56:59;;;;;;;10.17;4.53;;;;;;;14.46;45.64;98566.41;7051275;28;20201;-74
2022/11/24 16:00:23;;;;;;;6.23;3.73;;;;;;;14.48;45.24;98613.09;7054634;28;20221;-75
2022/11/24 16:03:45;;;;;;;6.13;2.57;;;;;;;15.12;44.09;98681.69;7053071;28;20646;-75
2022/11/24 16:07:06;;;;;;;5.47;2.83;;;;;;;14.72;43.93;98591.16;7049359;28;20239;-75
2022/11/24 16:10:30;;;;;;;6.70;2.77;;;;;;;14.91;44.20;98648.84;7065107;28;20209;-75
2022/11/24 16:13:53;;;;;;;7.47;2.90;;;;;;;15.05;43.61;98696.44;7064844;28;20563;-75
2022/11/24 16:17:15;;;;;;;8.60;3.00;;;;;;;14.99;44.05;98681.09;7064431;28;20228;-75
2022/11/24 16:20:37;;;;;;;10.17;3.40;;;;;;;15.29;44.06;98679.88;7064616;28;20209;-74
2022/11/24 16:23:58;;;;;;;9.13;2.90;;;;;;;15.20;43.12;98646.00;7064989;28;20213;-75